Time;durP1;ratioP1;P1;durP2;ratioP2;P2;SDS_P1;SDS_P2;PMS_P1;PMS_P2;Temp;Humidity;BMP_temperature;BMP_pressure;BME280_temperature;BME280_humidity;BME280_pressure;Samples;Min_cycle;Max_cycle;Signal;HPM_P1;HPM_P2
2021/08/28 00:01:53;;;;;;;8.02;4.78;;;23.00;55.80;;;;;;6159307;28;80620;-65
2021/08/28 00:04:54;;;;;;;6.60;4.78;;;23.00;55.80;;;;;;6168824;28;80434;-65
2021/08/28 00:07:54;;;;;;;7.05;5.03;;;23.00;55.70;;;;;;6164118;28;81512;-65
2021/08/28 00:10:54;;;;;;;5.47;4.80;;;23.00;55.70;;;;;;6169056;28;80422;-65
2021/08/28 00:13:55;;;;;;;4.55;4.03;;;23.00;55.60;;;;;;6159314;28;80476;-64
2021/08/28 00:16:55;;;;;;;6.53;4.88;;;23.00;55.60;;;;;;6173253;28;80805;-64
2021/08/28 00:19:56;;;;;;;9.90;5.18;;;23.00;55.40;;;;;;6162296;28;80842;-64
2021/08/28 00:22:57;;;;;;;8.35;5.07;;;23.10;55.60;;;;;;6177026;28;80429;-64
2021/08/28 00:25:57;;;;;;;5.75;4.15;;;23.00;55.80;;;;;;6163850;28;80516;-65
2021/08/28 00:28:57;;;;;;;7.20;4.70;;;23.00;55.50;;;;;;6173030;28;81100;-65
2021/08/28 00:31:58;;;;;;;10.73;5.45;;;23.00;55.30;;;;;;6161113;28;83072;-66
2021/08/28 00:34:59;;;;;;;5.80;4.55;;;23.00;55.30;;;;;;6163149;28;81298;-64
2021/08/28 00:38:00;;;;;;;6.60;4.75;;;23.00;55.10;;;;;;6167272;28;81719;-64
2021/08/28 00:41:00;;;;;;;6.60;4.80;;;23.00;55.00;;;;;;6168812;28;80447;-64
2021/08/28 00:44:01;;;;;;;7.72;4.95;;;23.00;55.20;;;;;;6162300;28;80507;-64
2021/08/28 00:47:01;;;;;;;6.00;4.60;;;23.00;55.70;;;;;;6168982;28;82162;-64
2021/08/28 00:50:02;;;;;;;5.60;4.15;;;23.00;55.00;;;;;;6162515;28;82079;-66
2021/08/28 00:53:02;;;;;;;7.05;4.18;;;23.00;55.10;;;;;;6175706;28;83269;-64
2021/08/28 00:56:03;;;;;;;5.20;4.13;;;23.00;54.80;;;;;;6166640;28;83320;-64
2021/08/28 00:59:04;;;;;;;6.35;4.20;;;23.00;55.00;;;;;;6158414;28;83375;-64
2021/08/28 01:02:05;;;;;;;6.78;4.53;;;23.00;54.80;;;;;;6153925;28;83005;-64
2021/08/28 01:05:05;;;;;;;5.30;4.50;;;23.00;54.60;;;;;;6159137;28;83117;-64
2021/08/28 01:08:06;;;;;;;6.68;5.00;;;23.00;54.60;;;;;;6158277;28;81772;-64
2021/08/28 01:11:45;;;;;;;4.22;3.63;;;23.00;54.60;;;;;;6146549;28;81465;-64
2021/08/28 01:14:46;;;;;;;6.90;4.03;;;23.00;54.60;;;;;;6162413;28;80247;-64
2021/08/28 01:17:49;;;;;;;7.07;4.50;;;23.00;54.70;;;;;;6152129;28;81513;-64
2021/08/28 01:20:50;;;;;;;6.45;4.32;;;23.00;54.60;;;;;;6168855;28;82737;-64
2021/08/28 01:24:26;;;;;;;5.07;4.00;;;23.00;54.60;;;;;;6158501;28;86354;-64
2021/08/28 01:27:35;;;;;;;6.00;3.95;;;23.00;54.50;;;;;;6167055;28;82903;-64
2021/08/28 01:30:35;;;;;;;5.75;3.97;;;22.90;54.40;;;;;;6159313;28;83373;-64
2021/08/28 01:33:36;;;;;;;3.97;3.55;;;22.90;54.30;;;;;;6167163;28;80876;-64
2021/08/28 01:36:38;;;;;;;4.78;3.58;;;22.90;54.20;;;;;;6152088;28;81720;-65
2021/08/28 01:39:51;;;;;;;5.47;4.07;;;22.90;54.40;;;;;;6167099;28;83475;-64
2021/08/28 01:43:12;;;;;;;5.20;3.55;;;22.90;54.30;;;;;;6155850;28;82988;-64
2021/08/28 01:46:13;;;;;;;5.60;4.20;;;22.90;54.60;;;;;;6153575;28;80477;-65
2021/08/28 01:49:17;;;;;;;4.35;3.47;;;22.90;54.40;;;;;;6169814;28;81745;-64
2021/08/28 01:52:17;;;;;;;7.13;3.88;;;22.90;54.20;;;;;;6165514;28;82871;-64
2021/08/28 01:55:19;;;;;;;4.78;3.60;;;22.90;54.10;;;;;;6145188;28;81762;-63
2021/08/28 01:58:38;;;;;;;4.57;3.97;;;22.90;54.30;;;;;;6157929;28;82970;-64
2021/08/28 02:01:57;;;;;;;4.53;3.53;;;22.90;54.00;;;;;;6172620;28;81605;-64
2021/08/28 02:04:58;;;;;;;4.80;3.75;;;22.90;54.00;;;;;;6168187;28;82827;-66
2021/08/28 02:08:03;;;;;;;5.95;3.83;;;22.90;53.90;;;;;;6154310;28;82352;-65
2021/08/28 02:11:03;;;;;;;4.68;3.38;;;22.90;53.90;;;;;;6157883;28;82526;-66
2021/08/28 02:14:04;;;;;;;4.20;3.75;;;22.90;53.80;;;;;;6156701;28;83205;-66
2021/08/28 02:17:05;;;;;;;4.13;3.58;;;22.90;53.60;;;;;;6159235;28;83350;-65
2021/08/28 02:20:05;;;;;;;4.22;3.55;;;22.90;53.90;;;;;;6163077;28;80895;-65
2021/08/28 02:23:24;;;;;;;5.40;3.90;;;22.90;53.70;;;;;;6170456;28;83202;-65
2021/08/28 02:26:51;;;;;;;5.05;3.30;;;22.90;53.70;;;;;;6146956;28;80543;-65
2021/08/28 02:29:52;;;;;;;5.07;3.58;;;22.90;53.50;;;;;;6167690;28;80488;-65
2021/08/28 02:32:53;;;;;;;4.32;3.15;;;22.90;53.30;;;;;;6192036;28;81797;-66
2021/08/28 02:35:54;;;;;;;3.60;3.22;;;22.90;53.30;;;;;;6166650;28;83129;-65
2021/08/28 02:38:55;;;;;;;4.95;3.25;;;22.90;53.20;;;;;;6188499;28;82740;-65
2021/08/28 02:41:56;;;;;;;4.75;3.15;;;22.90;53.60;;;;;;6173014;28;83086;-65
2021/08/28 02:44:57;;;;;;;3.95;3.53;;;22.90;53.20;;;;;;6197940;28;83113;-65
2021/08/28 02:47:58;;;;;;;3.85;3.28;;;22.90;53.20;;;;;;6168699;28;80788;-65
2021/08/28 02:50:59;;;;;;;4.93;3.65;;;22.90;53.40;;;;;;6172293;28;87115;-64
2021/08/28 02:54:00;;;;;;;4.55;3.15;;;22.90;53.10;;;;;;6162985;28;83150;-65
2021/08/28 02:57:01;;;;;;;3.60;3.00;;;22.90;53.40;;;;;;6150217;28;87400;-64
2021/08/28 03:00:01;;;;;;;6.68;3.85;;;22.90;53.30;;;;;;6158488;28;80557;-64
2021/08/28 03:03:02;;;;;;;4.93;3.40;;;22.90;53.10;;;;;;6156294;28;83028;-64
2021/08/28 03:06:02;;;;;;;6.10;3.28;;;22.90;53.20;;;;;;6170624;28;82834;-64
2021/08/28 03:09:07;;;;;;;11.38;3.95;;;22.90;53.30;;;;;;6157119;28;80553;-64
2021/08/28 03:12:08;;;;;;;4.53;3.58;;;22.90;53.10;;;;;;6167409;28;83502;-63
2021/08/28 03:15:08;;;;;;;3.50;3.03;;;22.80;53.10;;;;;;6170008;28;82747;-64
2021/08/28 03:18:17;;;;;;;6.03;3.20;;;22.90;53.20;;;;;;6164753;28;82110;-64
2021/08/28 03:21:20;;;;;;;3.70;3.25;;;22.90;53.10;;;;;;6167133;28;82893;-64
2021/08/28 03:24:21;;;;;;;4.55;3.67;;;22.90;53.10;;;;;;6166039;28;83315;-64
2021/08/28 03:27:36;;;;;;;5.22;3.20;;;22.80;52.80;;;;;;6165247;28;81706;-64
2021/08/28 03:30:36;;;;;;;5.20;2.97;;;22.90;52.80;;;;;;6195008;28;81905;-64
2021/08/28 03:33:37;;;;;;;4.82;3.50;;;22.90;52.70;;;;;;6161684;28;81939;-64
2021/08/28 03:36:37;;;;;;;4.28;3.05;;;22.90;52.80;;;;;;6173634;28;83215;-64
2021/08/28 03:39:39;;;;;;;5.35;3.83;;;22.90;52.70;;;;;;6155139;28;82765;-64
2021/08/28 03:42:40;;;;;;;3.72;3.13;;;22.80;52.50;;;;;;6198129;28;82772;-65
2021/08/28 03:45:43;;;;;;;4.75;3.28;;;22.80;52.70;;;;;;6158401;28;81193;-64
2021/08/28 03:48:44;;;;;;;3.88;3.33;;;22.80;52.40;;;;;;6179768;28;83241;-64
2021/08/28 03:51:44;;;;;;;3.80;3.10;;;22.80;52.40;;;;;;6165168;28;83444;-64
2021/08/28 03:54:45;;;;;;;3.05;2.75;;;22.80;52.60;;;;;;6160274;28;82726;-66
2021/08/28 03:57:46;;;;;;;6.00;3.67;;;22.80;52.60;;;;;;6170539;28;81774;-65
2021/08/28 04:00:47;;;;;;;5.32;3.15;;;22.80;52.70;;;;;;6161802;28;83241;-65
2021/08/28 04:03:47;;;;;;;4.97;3.35;;;22.80;52.70;;;;;;6161820;28;83363;-65
2021/08/28 04:06:48;;;;;;;3.60;3.00;;;22.80;52.80;;;;;;6165762;28;82903;-66
2021/08/28 04:09:49;;;;;;;4.90;3.00;;;22.80;52.90;;;;;;6168282;28;82849;-66
2021/08/28 04:12:49;;;;;;;5.60;3.05;;;22.80;53.10;;;;;;6166716;28;81255;-66
2021/08/28 04:15:52;;;;;;;4.50;3.55;;;22.80;53.10;;;;;;6156054;28;83354;-66
2021/08/28 04:19:02;;;;;;;3.55;2.90;;;22.80;53.20;;;;;;6156217;28;82970;-67
2021/08/28 04:22:20;;;;;;;5.95;2.78;;;22.80;53.30;;;;;;6153053;28;83410;-69
2021/08/28 04:25:39;;;;;;;4.68;3.13;;;22.80;53.50;;;;;;6157099;28;81220;-68
2021/08/28 04:28:52;;;;;;;5.15;3.10;;;22.80;53.70;;;;;;6164651;28;80411;-66
2021/08/28 04:31:53;;;;;;;3.85;3.17;;;22.80;53.70;;;;;;6137995;28;82635;-65
2021/08/28 04:34:54;;;;;;;3.53;2.85;;;22.80;53.80;;;;;;6165208;28;83298;-67
2021/08/28 04:37:54;;;;;;;2.95;2.50;;;22.80;54.10;;;;;;6157016;28;82101;-66
2021/08/28 04:40:56;;;;;;;6.90;2.97;;;22.80;54.10;;;;;;6166788;28;82750;-66
2021/08/28 04:43:59;;;;;;;6.85;3.47;;;22.80;53.70;;;;;;6153798;28;81596;-66
2021/08/28 04:47:03;;;;;;;4.43;3.15;;;22.90;53.70;;;;;;6173026;28;82463;-66
2021/08/28 04:50:04;;;;;;;3.53;2.97;;;22.80;54.00;;;;;;6170976;28;82999;-66
2021/08/28 04:53:11;;;;;;;4.38;2.85;;;22.80;54.40;;;;;;6161288;28;83614;-67
2021/08/28 04:56:12;;;;;;;4.60;3.00;;;22.90;54.60;;;;;;6171157;28;83327;-66
2021/08/28 04:59:13;;;;;;;3.92;3.03;;;22.90;56.00;;;;;;6172951;28;80239;-65
2021/08/28 05:02:22;;;;;;;5.00;3.17;;;22.90;54.80;;;;;;6166082;28;81631;-65
2021/08/28 05:05:31;;;;;;;5.72;3.38;;;22.90;54.60;;;;;;6157480;28;87656;-67
2021/08/28 05:08:32;;;;;;;3.92;3.10;;;22.90;56.00;;;;;;6158166;28;82560;-66
2021/08/28 05:11:33;;;;;;;4.15;3.22;;;22.90;55.60;;;;;;6160994;28;80697;-67
2021/08/28 05:14:38;;;;;;;5.43;3.20;;;22.90;55.50;;;;;;6163043;28;80485;-67
2021/08/28 05:17:39;;;;;;;;;;;22.90;55.70;;;;;;6171469;28;82548;-67
2021/08/28 05:20:40;;;;;;;3.53;2.83;;;22.90;55.70;;;;;;6165498;28;82844;-66
2021/08/28 05:24:06;;;;;;;6.03;3.60;;;22.90;55.60;;;;;;6162724;28;80459;-67
2021/08/28 05:27:16;;;;;;;3.53;2.97;;;22.90;55.60;;;;;;6169800;28;82505;-66
2021/08/28 05:30:17;;;;;;;5.13;3.33;;;23.00;55.80;;;;;;6160743;28;81564;-66
2021/08/28 05:33:17;;;;;;;4.13;2.65;;;23.00;55.80;;;;;;6154964;28;83578;-68
2021/08/28 05:36:18;;;;;;;10.43;3.05;;;23.00;55.70;;;;;;6158866;28;82764;-69
2021/08/28 05:39:44;;;;;;;6.95;2.90;;;23.00;55.20;;;;;;6165919;28;81685;-68
2021/08/28 05:42:45;;;;;;;5.15;2.90;;;23.00;55.40;;;;;;6159316;28;81737;-68
2021/08/28 05:45:46;;;;;;;7.53;3.30;;;23.10;55.60;;;;;;6164685;28;81666;-68
2021/08/28 05:48:46;;;;;;;8.25;3.30;;;23.00;55.70;;;;;;6169848;28;83136;-68
2021/08/28 05:52:07;;;;;;;5.93;3.75;;;23.00;55.80;;;;;;6158985;28;81393;-67
2021/08/28 05:55:10;;;;;;;8.02;3.35;;;23.00;56.10;;;;;;6163947;28;82817;-67
2021/08/28 05:58:11;;;;;;;5.63;3.42;;;23.00;56.50;;;;;;6155606;28;82994;-68
2021/08/28 06:01:12;;;;;;;5.85;3.67;;;23.00;56.30;;;;;;6150858;28;83497;-67
2021/08/28 06:04:13;;;;;;;6.45;3.58;;;23.00;56.20;;;;;;6160808;28;82840;-69
2021/08/28 06:07:42;;;;;;;7.10;3.95;;;23.00;56.30;;;;;;6115140;28;80945;-67
2021/08/28 06:11:01;;;;;;;6.75;3.35;;;23.10;56.00;;;;;;6174217;28;80067;-68
2021/08/28 06:14:20;;;;;;;6.28;4.07;;;23.10;55.70;;;;;;6163432;28;80673;-68
2021/08/28 06:17:28;;;;;;;9.32;3.38;;;23.10;55.60;;;;;;6167289;28;80900;-67
2021/08/28 06:20:28;;;;;;;6.68;3.28;;;23.00;55.10;;;;;;6156179;28;87450;-65
2021/08/28 06:23:29;;;;;;;8.70;3.15;;;23.10;55.20;;;;;;6157107;28;82867;-67
2021/08/28 06:26:48;;;;;;;8.35;3.70;;;23.10;54.90;;;;;;6155079;28;88026;-67
2021/08/28 06:29:49;;;;;;;7.25;3.75;;;23.10;54.80;;;;;;6157622;28;81753;-68
2021/08/28 06:32:49;;;;;;;9.18;3.30;;;23.00;54.80;;;;;;6154813;28;82836;-69
2021/08/28 06:35:51;;;;;;;4.97;3.28;;;23.00;54.80;;;;;;6163925;28;82203;-66
2021/08/28 06:39:13;;;;;;;5.22;3.78;;;23.00;55.10;;;;;;6158774;28;81674;-67
2021/08/28 06:42:37;;;;;;;7.45;3.38;;;23.10;55.00;;;;;;6150066;28;82754;-67
2021/08/28 06:45:56;;;;;;;7.03;3.42;;;23.10;55.10;;;;;;6156131;28;80622;-66
2021/08/28 06:49:25;;;;;;;5.00;3.13;;;23.10;55.20;;;;;;6118312;28;80434;-65
2021/08/28 06:52:44;;;;;;;11.77;3.05;;;23.10;55.00;;;;;;6170275;28;80080;-67
2021/08/28 06:56:03;;;;;;;5.03;3.10;;;23.10;55.00;;;;;;6175430;28;80518;-67
2021/08/28 06:59:22;;;;;;;6.13;2.78;;;23.10;55.10;;;;;;6158473;28;80637;-66
2021/08/28 07:02:40;;;;;;;;;;;23.10;55.60;;;;;;6155774;28;87646;-67
2021/08/28 07:05:41;;;;;;;7.05;3.50;;;23.10;55.60;;;;;;6164707;28;81636;-68
2021/08/28 07:09:02;;;;;;;7.47;3.50;;;23.10;55.80;;;;;;6157041;28;80304;-67
2021/08/28 07:12:02;;;;;;;6.10;3.13;;;23.10;55.80;;;;;;6161099;28;83382;-66
2021/08/28 07:15:05;;;;;;;4.22;3.30;;;23.10;56.20;;;;;;6156478;28;82334;-66
2021/08/28 07:18:23;;;;;;;5.78;2.75;;;23.10;56.30;;;;;;6157594;28;82924;-65
2021/08/28 07:21:23;;;;;;;7.82;3.20;;;23.20;56.50;;;;;;6170937;28;80159;-67
2021/08/28 07:24:25;;;;;;;7.55;3.38;;;23.10;56.20;;;;;;6161403;28;83788;-66
2021/08/28 07:27:26;;;;;;;6.45;3.33;;;23.20;56.20;;;;;;6158982;28;82758;-67
2021/08/28 07:30:45;;;;;;;7.07;3.50;;;23.20;56.30;;;;;;6165810;28;80125;-66
2021/08/28 07:33:45;;;;;;;5.10;3.00;;;23.20;56.20;;;;;;6174841;28;83439;-67
2021/08/28 07:36:46;;;;;;;6.40;3.05;;;23.20;56.20;;;;;;6171169;28;83104;-66
2021/08/28 07:39:46;;;;;;;6.43;2.83;;;23.20;56.20;;;;;;6164339;28;81508;-66
2021/08/28 07:42:47;;;;;;;7.82;3.13;;;23.10;56.20;;;;;;6161472;28;83037;-64
2021/08/28 07:45:48;;;;;;;5.20;3.00;;;23.10;56.20;;;;;;6160252;28;81873;-65
2021/08/28 07:48:52;;;;;;;6.03;2.92;;;23.20;56.40;;;;;;6160090;28;81499;-65
2021/08/28 07:51:53;;;;;;;8.30;2.60;;;23.20;56.10;;;;;;6194920;28;81803;-66
2021/08/28 07:54:53;;;;;;;5.22;3.05;;;23.20;56.20;;;;;;6155438;28;82835;-65
2021/08/28 07:57:59;;;;;;;;;;;23.20;56.10;;;;;;6170117;28;81467;-68
2021/08/28 08:01:01;;;;;;;9.77;3.13;;;23.20;56.10;;;;;;6163225;28;82010;-67
2021/08/28 08:04:01;;;;;;;8.05;2.55;;;23.20;56.10;;;;;;6194682;28;80804;-68
2021/08/28 08:07:20;;;;;;;5.78;2.58;;;23.20;56.40;;;;;;6155703;28;79992;-67
2021/08/28 08:10:40;;;;;;;4.43;2.33;;;23.20;56.10;;;;;;6156468;28;80682;-68
2021/08/28 08:13:59;;;;;;;4.25;2.70;;;23.30;56.00;;;;;;6157157;28;80342;-67
2021/08/28 08:17:18;;;;;;;4.60;2.30;;;23.30;55.90;;;;;;6158237;28;81161;-68
2021/08/28 08:20:41;;;;;;;4.45;2.80;;;23.30;55.80;;;;;;6158688;28;85743;-67
2021/08/28 08:24:00;;;;;;;5.85;2.35;;;23.30;55.80;;;;;;6163577;28;80551;-67
2021/08/28 08:27:19;;;;;;;5.00;2.00;;;23.30;56.30;;;;;;6156216;28;80526;-67
2021/08/28 08:30:53;;;;;;;7.20;1.92;;;23.30;56.00;;;;;;6190618;28;83190;-67
2021/08/28 08:33:55;;;;;;;4.15;2.30;;;23.30;55.80;;;;;;6153548;28;82141;-66
2021/08/28 08:36:55;;;;;;;5.40;2.50;;;23.30;55.80;;;;;;6156316;28;83260;-66
2021/08/28 08:39:56;;;;;;;3.70;2.00;;;23.30;55.60;;;;;;6156923;28;81874;-66
2021/08/28 08:43:07;;;;;;;4.13;2.30;;;23.30;55.60;;;;;;6158863;28;82817;-66
2021/08/28 08:46:08;;;;;;;4.20;2.15;;;23.30;55.80;;;;;;6158220;28;83290;-66
2021/08/28 08:49:08;;;;;;;4.70;2.38;;;23.30;55.80;;;;;;6174241;28;82691;-66
2021/08/28 08:52:09;;;;;;;4.72;2.75;;;23.30;55.70;;;;;;6159474;28;80833;-66
2021/08/28 08:55:27;;;;;;;3.13;2.42;;;23.30;55.60;;;;;;6154008;28;82326;-66
2021/08/28 08:58:28;;;;;;;3.40;2.22;;;23.40;55.80;;;;;;6172497;28;87232;-65
2021/08/28 09:01:36;;;;;;;3.53;1.95;;;23.30;55.80;;;;;;6158328;28;83247;-66
2021/08/28 09:05:06;;;;;;;3.78;2.28;;;23.30;55.60;;;;;;6119226;28;80644;-66
2021/08/28 09:08:06;;;;;;;3.03;2.03;;;23.40;55.60;;;;;;6158850;28;83302;-66
2021/08/28 09:11:07;;;;;;;2.88;1.70;;;23.40;55.60;;;;;;6174901;28;80467;-67
2021/08/28 09:14:08;;;;;;;5.93;2.30;;;23.40;55.30;;;;;;6167225;28;80881;-68
2021/08/28 09:17:09;;;;;;;3.20;2.30;;;23.40;55.20;;;;;;6164538;28;80284;-69
2021/08/28 09:20:09;;;;;;;7.03;2.20;;;23.40;55.40;;;;;;6165829;28;80220;-68
2021/08/28 09:23:10;;;;;;;3.28;1.90;;;23.40;55.30;;;;;;6155432;28;80669;-67
2021/08/28 09:26:10;;;;;;;5.85;2.17;;;23.40;55.20;;;;;;6168055;28;80597;-67
2021/08/28 09:29:11;;;;;;;6.00;2.30;;;23.40;55.20;;;;;;6175308;28;80616;-68
2021/08/28 09:32:11;;;;;;;5.40;2.30;;;23.40;55.20;;;;;;6163793;28;82399;-67
2021/08/28 09:35:12;;;;;;;24.08;6.45;;;23.40;55.30;;;;;;6158730;28;80374;-67
2021/08/28 09:38:13;;;;;;;35.97;17.05;;;23.40;56.50;;;;;;6161119;28;80122;-67
2021/08/28 09:41:14;;;;;;;39.20;20.15;;;23.40;56.50;;;;;;6164284;28;83256;-67
2021/08/28 09:44:14;;;;;;;55.97;22.63;;;23.40;56.50;;;;;;6157199;28;86149;-67
2021/08/28 09:47:15;;;;;;;41.90;22.70;;;23.50;56.70;;;;;;6159659;28;82981;-67
2021/08/28 09:50:15;;;;;;;40.63;22.48;;;23.50;56.70;;;;;;6165270;28;82963;-67
2021/08/28 09:53:16;;;;;;;44.33;24.23;;;23.50;56.50;;;;;;6158108;28;84031;-67
2021/08/28 09:56:16;;;;;;;47.28;24.17;;;23.50;56.40;;;;;;6166084;28;83729;-67
2021/08/28 09:59:18;;;;;;;47.92;24.25;;;23.50;56.30;;;;;;6146621;28;83236;-67
2021/08/28 10:02:18;;;;;;;40.80;22.92;;;23.50;56.20;;;;;;6141148;28;83610;-68
2021/08/28 10:05:18;;;;;;;36.30;23.58;;;23.50;56.10;;;;;;6147229;28;83271;-68
2021/08/28 10:08:19;;;;;;;41.85;22.27;;;23.50;56.10;;;;;;6149999;28;83118;-69
2021/08/28 10:11:19;;;;;;;37.25;20.60;;;23.50;56.10;;;;;;6160721;28;83912;-68
2021/08/28 10:14:20;;;;;;;41.03;20.88;;;23.50;56.30;;;;;;6167140;28;83082;-67
2021/08/28 10:17:20;;;;;;;31.30;18.73;;;23.50;56.30;;;;;;6156160;28;83164;-68
2021/08/28 10:20:21;;;;;;;30.65;18.08;;;23.50;56.90;;;;;;6173012;28;84075;-69
2021/08/28 10:23:22;;;;;;;24.33;17.45;;;23.50;56.20;;;;;;6163428;28;85483;-69
2021/08/28 10:26:22;;;;;;;26.20;15.38;;;23.50;56.10;;;;;;6155155;28;83579;-66
2021/08/28 10:29:23;;;;;;;27.63;14.80;;;23.50;56.00;;;;;;6162001;28;83137;-68
2021/08/28 10:32:23;;;;;;;25.00;13.23;;;23.50;55.80;;;;;;6162804;28;85129;-69
2021/08/28 10:35:24;;;;;;;22.73;12.50;;;23.50;55.80;;;;;;6163932;28;83238;-67
2021/08/28 10:38:24;;;;;;;17.20;9.93;;;23.50;55.60;;;;;;6159460;28;83107;-68
2021/08/28 10:41:25;;;;;;;14.77;9.70;;;23.60;55.50;;;;;;6169634;28;81805;-69
2021/08/28 10:44:25;;;;;;;15.82;10.02;;;23.60;55.40;;;;;;6163061;28;81552;-68
2021/08/28 10:47:26;;;;;;;16.05;8.82;;;23.50;55.60;;;;;;6167738;28;83133;-71
2021/08/28 10:50:33;;;;;;;13.80;8.35;;;23.50;55.80;;;;;;6155894;28;90170;-70
2021/08/28 10:53:34;;;;;;;11.40;7.53;;;23.60;55.50;;;;;;6158659;28;81970;-69
2021/08/28 10:56:34;;;;;;;15.52;7.85;;;23.60;55.20;;;;;;6165336;28;81429;-69
2021/08/28 10:59:35;;;;;;;10.77;6.57;;;23.70;55.10;;;;;;6178768;28;80903;-68
2021/08/28 11:02:35;;;;;;;13.43;6.47;;;23.70;54.80;;;;;;6165442;28;80520;-68
2021/08/28 11:05:36;;;;;;;13.65;5.90;;;23.70;54.50;;;;;;6168871;28;81609;-68
2021/08/28 11:08:36;;;;;;;7.75;5.00;;;23.70;54.50;;;;;;6166714;28;80476;-69
2021/08/28 11:11:38;;;;;;;10.25;5.18;;;23.60;54.30;;;;;;6165119;28;80328;-68
2021/08/28 11:14:44;;;;;;;6.72;5.07;;;23.60;54.30;;;;;;6169987;28;80513;-67
2021/08/28 11:17:44;;;;;;;7.90;4.68;;;23.60;54.10;;;;;;6165157;28;80599;-69
2021/08/28 11:20:45;;;;;;;8.32;4.90;;;23.60;54.20;;;;;;6164739;28;80481;-69
2021/08/28 11:23:47;;;;;;;7.63;4.30;;;23.70;54.30;;;;;;6161185;28;81600;-68
2021/08/28 11:26:47;;;;;;;7.43;3.45;;;23.70;54.20;;;;;;6166971;28;82238;-70
2021/08/28 11:29:47;;;;;;;9.43;4.25;;;23.70;53.90;;;;;;6153169;28;81528;-66
2021/08/28 11:32:48;;;;;;;5.80;3.80;;;23.70;53.80;;;;;;6163853;28;80235;-67
2021/08/28 11:35:48;;;;;;;4.47;3.45;;;23.60;53.70;;;;;;6174299;28;80498;-71
2021/08/28 11:38:49;;;;;;;5.45;3.08;;;23.70;53.90;;;;;;6155853;28;80776;-66
2021/08/28 11:41:49;;;;;;;8.23;3.65;;;23.60;53.90;;;;;;6163250;28;80420;-68
2021/08/28 11:44:50;;;;;;;4.53;3.20;;;23.60;54.20;;;;;;6156339;28;83205;-69
2021/08/28 11:47:50;;;;;;;7.50;2.95;;;23.60;54.30;;;;;;6162130;28;81445;-68
2021/08/28 11:50:51;;;;;;;3.60;2.90;;;23.60;54.70;;;;;;6167121;28;81545;-70
2021/08/28 11:53:51;;;;;;;4.07;3.10;;;23.60;54.80;;;;;;6151745;28;81718;-69
2021/08/28 11:56:52;;;;;;;5.25;2.85;;;23.70;54.80;;;;;;6157804;28;81501;-69
2021/08/28 11:59:52;;;;;;;6.35;2.88;;;23.70;55.00;;;;;;6162218;28;81211;-67
2021/08/28 12:02:53;;;;;;;7.75;2.97;;;23.70;55.10;;;;;;6163443;28;81083;-66
2021/08/28 12:05:54;;;;;;;6.20;2.97;;;23.70;54.90;;;;;;6168837;28;80360;-67
2021/08/28 12:08:54;;;;;;;6.05;3.20;;;23.70;54.90;;;;;;6172431;28;81743;-66
2021/08/28 12:11:55;;;;;;;10.32;3.35;;;23.70;55.00;;;;;;6165800;28;80382;-68
2021/08/28 12:14:55;;;;;;;4.65;2.90;;;23.70;55.00;;;;;;6155532;28;82723;-68
2021/08/28 12:17:56;;;;;;;8.10;3.00;;;23.70;55.20;;;;;;6162574;28;82553;-68
2021/08/28 12:20:56;;;;;;;4.97;3.15;;;23.80;56.00;;;;;;6162712;28;81119;-68
2021/08/28 12:23:57;;;;;;;3.75;2.53;;;23.80;55.80;;;;;;6154896;28;80797;-68
2021/08/28 12:26:57;;;;;;;6.43;4.68;;;23.80;55.80;;;;;;6162323;28;80822;-68
2021/08/28 12:29:58;;;;;;;9.82;4.00;;;23.80;56.30;;;;;;6167211;28;80479;-66
2021/08/28 12:32:58;;;;;;;8.88;3.10;;;23.80;56.00;;;;;;6169189;28;80516;-66
2021/08/28 12:35:59;;;;;;;53.10;21.23;;;23.80;55.80;;;;;;6164759;28;81352;-66
2021/08/28 12:38:59;;;;;;;49.63;25.30;;;23.80;59.40;;;;;;6148959;28;82955;-64
2021/08/28 12:42:00;;;;;;;17.60;8.80;;;23.80;61.10;;;;;;6152247;28;84762;-65
2021/08/28 12:45:00;;;;;;;26.60;13.07;;;23.80;57.50;;;;;;6162785;28;81835;-63
2021/08/28 12:48:01;;;;;;;48.63;23.00;;;23.80;57.80;;;;;;6149034;28;84999;-63
2021/08/28 12:51:01;;;;;;;28.98;14.05;;;23.90;59.20;;;;;;6157159;28;83471;-63
2021/08/28 12:54:02;;;;;;;18.50;9.30;;;23.90;57.10;;;;;;6167713;28;83437;-64
2021/08/28 12:57:02;;;;;;;16.58;8.85;;;23.90;55.40;;;;;;6164515;28;83354;-64
2021/08/28 13:00:02;;;;;;;25.98;11.73;;;23.90;55.40;;;;;;6161936;28;81460;-65
2021/08/28 13:03:03;;;;;;;17.17;9.05;;;23.90;57.00;;;;;;6160268;28;83512;-64
2021/08/28 13:06:03;;;;;;;17.65;8.00;;;23.90;56.60;;;;;;6174777;28;83219;-67
2021/08/28 13:09:04;;;;;;;16.25;6.65;;;23.90;55.60;;;;;;6159455;28;81006;-65
2021/08/28 13:12:04;;;;;;;17.27;9.13;;;23.90;55.30;;;;;;6152744;28;82031;-66
2021/08/28 13:15:05;;;;;;;13.93;7.50;;;23.90;56.00;;;;;;6158695;28;82247;-65
2021/08/28 13:18:05;;;;;;;20.58;7.45;;;23.90;55.10;;;;;;6168827;28;82004;-64
2021/08/28 13:21:06;;;;;;;32.97;15.25;;;24.00;55.80;;;;;;6156652;28;80650;-66
2021/08/28 13:24:06;;;;;;;22.67;10.15;;;24.00;58.90;;;;;;6171206;28;83064;-66
2021/08/28 13:27:07;;;;;;;34.97;16.52;;;23.90;58.10;;;;;;6153139;28;84351;-67
2021/08/28 13:30:08;;;;;;;30.58;15.20;;;24.00;61.70;;;;;;6156259;28;83046;-66
2021/08/28 13:33:08;;;;;;;33.28;14.52;;;24.00;61.10;;;;;;6153742;28;84660;-65
2021/08/28 13:36:09;;;;;;;22.20;8.90;;;24.00;59.30;;;;;;6152030;28;83048;-66
2021/08/28 13:39:09;;;;;;;16.85;7.03;;;24.00;57.40;;;;;;6169536;28;83073;-66
2021/08/28 13:42:10;;;;;;;16.85;6.40;;;24.00;56.60;;;;;;6159907;28;80083;-66
2021/08/28 13:45:10;;;;;;;12.07;5.38;;;24.00;56.30;;;;;;6154807;28;81050;-67
2021/08/28 13:48:11;;;;;;;10.48;4.60;;;24.00;55.60;;;;;;6157148;28;80622;-66
2021/08/28 13:51:11;;;;;;;8.77;4.72;;;24.00;55.00;;;;;;6162549;28;80884;-65
2021/08/28 13:54:12;;;;;;;13.77;4.80;;;23.90;54.50;;;;;;6151556;28;80249;-65
2021/08/28 13:57:12;;;;;;;10.80;3.60;;;23.80;54.50;;;;;;6165575;28;81389;-66
2021/08/28 14:00:13;;;;;;;8.57;3.47;;;23.80;54.20;;;;;;6162001;28;80706;-65
2021/08/28 14:03:13;;;;;;;8.73;3.25;;;23.80;54.00;;;;;;6164105;28;80421;-66
2021/08/28 14:06:14;;;;;;;6.75;3.85;;;23.80;54.10;;;;;;6154942;28;82412;-67
2021/08/28 14:09:14;;;;;;;7.38;4.03;;;23.80;53.80;;;;;;6148650;28;81136;-67
2021/08/28 14:12:15;;;;;;;6.25;3.35;;;23.80;53.90;;;;;;6164231;28;80329;-67
2021/08/28 14:15:15;;;;;;;5.30;3.47;;;23.90;54.00;;;;;;6168784;28;81725;-67
2021/08/28 14:18:16;;;;;;;4.20;3.00;;;23.80;53.70;;;;;;6166129;28;80469;-67
2021/08/28 14:21:16;;;;;;;5.30;3.15;;;23.70;53.60;;;;;;6161544;28;81668;-66
2021/08/28 14:24:17;;;;;;;5.85;3.00;;;23.70;53.50;;;;;;6157826;28;80398;-69
2021/08/28 14:27:17;;;;;;;5.07;2.78;;;23.80;53.20;;;;;;6155697;28;80656;-68
2021/08/28 14:30:18;;;;;;;4.63;2.42;;;23.80;52.70;;;;;;6157012;28;80769;-68
2021/08/28 14:33:23;;;;;;;2.95;2.25;;;23.80;51.90;;;;;;6170814;28;81473;-69
2021/08/28 14:36:24;;;;;;;4.17;2.10;;;23.80;51.70;;;;;;6152588;28;82833;-68
2021/08/28 14:39:24;;;;;;;2.90;2.17;;;23.80;52.30;;;;;;6169631;28;80492;-68
2021/08/28 14:42:25;;;;;;;4.57;1.90;;;23.80;52.00;;;;;;6159842;28;80547;-68
2021/08/28 14:45:25;;;;;;;2.70;1.70;;;23.70;50.80;;;;;;6155643;28;80633;-68
2021/08/28 14:48:26;;;;;;;1.70;1.60;;;23.70;49.90;;;;;;6157825;28;80998;-67
2021/08/28 14:51:26;;;;;;;4.30;1.65;;;23.70;50.20;;;;;;6159746;28;80853;-68
2021/08/28 14:54:27;;;;;;;2.40;1.75;;;23.70;50.40;;;;;;6171755;28;80783;-69
2021/08/28 14:57:27;;;;;;;4.05;1.80;;;23.80;50.30;;;;;;6160279;28;80686;-69
2021/08/28 15:00:28;;;;;;;1.98;1.73;;;23.80;49.90;;;;;;6172438;28;80480;-68
2021/08/28 15:03:30;;;;;;;3.60;2.30;;;23.80;49.10;;;;;;6159324;28;82821;-65
2021/08/28 15:06:31;;;;;;;2.92;2.10;;;23.80;49.70;;;;;;6160676;28;80675;-66
2021/08/28 15:09:32;;;;;;;2.83;2.00;;;23.80;48.80;;;;;;6162427;28;81349;-66
2021/08/28 15:12:32;;;;;;;2.17;1.73;;;23.80;48.20;;;;;;6161528;28;80605;-66
2021/08/28 15:15:33;;;;;;;2.67;1.80;;;23.80;48.10;;;;;;6159149;28;80665;-65
2021/08/28 15:18:33;;;;;;;2.78;1.70;;;23.80;48.20;;;;;;6173413;28;81469;-65
2021/08/28 15:21:34;;;;;;;1.98;1.75;;;23.80;48.10;;;;;;6165775;28;81079;-67
2021/08/28 15:24:34;;;;;;;1.95;1.20;;;23.80;47.80;;;;;;6157653;28;83296;-66
2021/08/28 15:27:35;;;;;;;2.47;1.40;;;23.70;43.30;;;;;;6163681;28;80362;-66
2021/08/28 15:30:35;;;;;;;3.88;1.80;;;23.60;44.50;;;;;;6163966;28;80426;-66
2021/08/28 15:33:36;;;;;;;2.38;1.50;;;23.70;44.70;;;;;;6158991;28;81546;-66
2021/08/28 15:36:36;;;;;;;1.95;1.25;;;23.60;44.80;;;;;;6158755;28;80694;-66
2021/08/28 15:39:37;;;;;;;1.60;1.48;;;23.70;45.00;;;;;;6161103;28;80459;-65
2021/08/28 15:42:37;;;;;;;3.28;1.58;;;23.70;45.10;;;;;;6160334;28;80167;-65
2021/08/28 15:45:39;;;;;;;4.25;1.10;;;23.70;45.70;;;;;;6159304;28;83474;-65
2021/08/28 15:48:40;;;;;;;2.10;1.35;;;23.70;45.60;;;;;;6160921;28;80157;-66
2021/08/28 15:51:43;;;;;;;2.55;1.58;;;23.60;45.70;;;;;;6163687;28;80419;-65
2021/08/28 15:54:44;;;;;;;2.15;1.48;;;23.70;46.10;;;;;;6161364;28;81318;-65